Time;durP1;ratioP1;P1;durP2;ratioP2;P2;SDS_P1;SDS_P2;PMS_P1;PMS_P2;Temp;Humidity;BMP_temperature;BMP_pressure;BME280_temperature;BME280_humidity;BME280_pressure;Samples;Min_cycle;Max_cycle;Signal;HPM_P1;HPM_P2
2022/03/16 00:00:19;;;;;;;18.15;10.00;;;;;;;10.72;34.33;100416.41;4405337;32;33888;-60
2022/03/16 00:02:48;;;;;;;17.10;10.52;;;;;;;10.59;34.89;100404.53;4405182;32;33646;-58
2022/03/16 00:05:16;;;;;;;19.55;10.20;;;;;;;10.23;36.60;100379.22;4405256;32;32329;-58
2022/03/16 00:07:44;;;;;;;18.90;10.80;;;;;;;10.38;35.91;100386.09;4403837;32;33184;-58
2022/03/16 00:10:12;;;;;;;19.42;10.25;;;;;;;10.77;35.45;100400.31;4404652;32;34395;-57
2022/03/16 00:12:41;;;;;;;19.40;11.05;;;;;;;10.78;36.03;100402.09;4403073;32;32536;-58
2022/03/16 00:15:09;;;;;;;21.40;11.20;;;;;;;10.98;35.78;100404.88;4404698;32;34353;-60
2022/03/16 00:17:37;;;;;;;20.83;10.90;;;;;;;10.65;35.96;100409.16;4404507;32;34312;-59
2022/03/16 00:20:05;;;;;;;19.80;11.40;;;;;;;10.56;35.84;100400.03;4404236;32;34570;-58
2022/03/16 00:22:33;;;;;;;20.23;10.68;;;;;;;10.14;37.14;100393.34;4405336;32;34801;-58
2022/03/16 00:25:01;;;;;;;19.15;10.50;;;;;;;10.65;35.76;100399.66;4405857;32;33101;-58
2022/03/16 00:27:29;;;;;;;20.27;10.13;;;;;;;10.97;35.12;100397.88;4405123;32;33405;-59
2022/03/16 00:29:56;;;;;;;21.65;11.80;;;;;;;10.61;36.38;100387.34;4404937;32;33955;-59
2022/03/16 00:32:24;;;;;;;19.70;10.60;;;;;;;10.70;37.26;100384.34;4405034;32;34062;-60
2022/03/16 00:34:51;;;;;;;22.25;12.35;;;;;;;10.91;38.71;100382.00;4404757;32;34644;-59
2022/03/16 00:37:20;;;;;;;21.73;11.73;;;;;;;10.68;39.19;100383.37;4405270;32;33219;-59
2022/03/16 00:39:48;;;;;;;22.52;11.93;;;;;;;10.44;40.03;100378.66;4405217;32;33999;-59
2022/03/16 00:42:15;;;;;;;21.95;12.60;;;;;;;10.60;39.95;100382.97;4405278;32;32355;-58
2022/03/16 00:44:42;;;;;;;25.48;11.90;;;;;;;10.60;41.45;100380.38;4404842;32;33885;-58
2022/03/16 00:47:10;;;;;;;20.88;11.75;;;;;;;10.86;40.51;100373.13;4404705;32;32019;-58
2022/03/16 00:49:38;;;;;;;24.63;13.10;;;;;;;11.00;41.61;100373.00;4405156;32;35967;-58
2022/03/16 00:52:05;;;;;;;25.02;13.20;;;;;;;10.68;42.23;100381.72;4391224;32;32344;-58
2022/03/16 00:54:33;;;;;;;24.12;13.10;;;;;;;10.27;41.32;100364.75;4405119;32;34001;-58
2022/03/16 00:57:01;;;;;;;21.45;12.40;;;;;;;10.41;41.44;100356.09;4405043;32;33357;-60
2022/03/16 00:59:29;;;;;;;21.48;13.18;;;;;;;11.14;39.53;100345.19;4404989;32;34117;-59
2022/03/16 01:01:57;;;;;;;23.58;13.20;;;;;;;11.24;39.79;100335.31;4404921;32;33820;-60
2022/03/16 01:04:25;;;;;;;23.08;13.25;;;;;;;10.84;42.43;100346.25;4404730;32;34801;-59
2022/03/16 01:06:54;;;;;;;23.25;13.50;;;;;;;11.10;41.49;100338.09;4390861;32;32082;-58
2022/03/16 01:09:22;;;;;;;23.73;13.05;;;;;;;11.11;41.18;100337.28;4401372;32;105575;-60
2022/03/16 01:11:50;;;;;;;23.45;13.07;;;;;;;10.83;41.13;100337.56;4404959;32;33666;-58
2022/03/16 01:14:17;;;;;;;23.10;13.07;;;;;;;10.88;41.11;100345.59;4405205;32;33775;-59
2022/03/16 01:16:45;;;;;;;26.55;14.23;;;;;;;10.39;43.04;100354.22;4404926;32;32940;-58
2022/03/16 01:19:14;;;;;;;26.48;14.80;;;;;;;10.57;42.26;100356.91;4403701;32;33832;-59
2022/03/16 01:21:42;;;;;;;24.05;13.40;;;;;;;10.78;41.49;100352.87;4404288;32;34798;-60
2022/03/16 01:24:10;;;;;;;25.50;13.38;;;;;;;11.08;42.63;100354.38;4405076;32;34008;-59
2022/03/16 01:26:37;;;;;;;23.65;13.07;;;;;;;10.61;43.05;100366.63;4404390;32;33146;-60
2022/03/16 01:29:05;;;;;;;27.95;13.45;;;;;;;11.32;41.04;100365.09;4403646;32;31340;-60
2022/03/16 01:31:34;;;;;;;26.37;12.85;;;;;;;10.89;42.00;100378.44;4404745;32;33803;-59
2022/03/16 01:34:01;;;;;;;22.62;13.02;;;;;;;9.71;46.51;100376.28;4404675;32;32434;-58
2022/03/16 01:36:29;;;;;;;26.85;14.40;;;;;;;9.48;48.44;100380.13;4403393;32;34326;-58
2022/03/16 01:38:56;;;;;;;21.50;13.43;;;;;;;9.10;50.17;100393.37;4403971;32;34527;-57
2022/03/16 01:41:24;;;;;;;22.37;13.13;;;;;;;9.93;47.25;100378.44;4404870;32;34028;-59
2022/03/16 01:43:56;;;;;;;23.65;13.38;;;;;;;9.26;48.73;100390.94;4404505;32;33197;-59
2022/03/16 01:46:24;;;;;;;24.77;14.48;;;;;;;8.95;50.56;100395.94;4403811;32;33279;-60
2022/03/16 01:48:52;;;;;;;26.25;13.57;;;;;;;9.18;50.20;100389.59;4404286;32;33884;-58
2022/03/16 01:51:20;;;;;;;22.83;13.95;;;;;;;8.90;50.70;100384.44;4403942;32;33724;-59
2022/03/16 01:53:49;;;;;;;20.42;12.95;;;;;;;9.32;49.33;100385.22;4404532;32;33939;-58
2022/03/16 01:56:17;;;;;;;22.95;13.05;;;;;;;9.76;48.15;100384.34;4404324;32;32353;-60
2022/03/16 01:58:45;;;;;;;22.40;13.60;;;;;;;9.29;49.52;100375.59;4404356;32;33955;-60
2022/03/16 02:01:16;;;;;;;21.98;13.02;;;;;;;10.01;48.43;100361.63;4404027;32;34010;-58
2022/03/16 02:03:44;;;;;;;28.27;14.45;;;;;;;10.52;46.57;100376.50;4404626;32;33782;-58
2022/03/16 02:06:12;;;;;;;22.08;13.07;;;;;;;10.75;45.72;100373.44;4404139;32;33344;-60
2022/03/16 02:08:42;;;;;;;23.50;13.50;;;;;;;10.77;45.62;100373.50;4403603;32;33750;-60
2022/03/16 02:11:10;;;;;;;23.60;13.18;;;;;;;10.56;47.08;100374.12;4404690;32;33265;-60
2022/03/16 02:13:38;;;;;;;25.95;13.48;;;;;;;9.76;49.83;100368.81;4404442;32;34014;-60
2022/03/16 02:16:05;;;;;;;25.02;13.15;;;;;;;9.10;50.65;100368.44;4403879;32;34235;-60
2022/03/16 02:18:33;;;;;;;26.20;14.40;;;;;;;8.82;52.65;100358.13;4403758;32;34620;-60
2022/03/16 02:21:02;;;;;;;24.12;13.32;;;;;;;8.99;52.70;100360.03;4404606;32;34427;-59
2022/03/16 02:23:30;;;;;;;23.58;13.10;;;;;;;9.42;51.31;100353.94;4391656;32;34537;-59
2022/03/16 02:25:58;;;;;;;23.98;14.02;;;;;;;9.10;52.52;100347.78;4403556;32;34322;-58
2022/03/16 02:28:25;;;;;;;24.58;14.95;;;;;;;8.99;54.09;100351.41;4404281;32;32296;-58
2022/03/16 02:30:53;;;;;;;26.33;14.60;;;;;;;9.03;53.87;100350.78;4403937;32;33997;-59
2022/03/16 02:33:20;;;;;;;24.02;14.07;;;;;;;9.24;53.46;100344.28;4404278;32;34043;-59
2022/03/16 02:35:48;;;;;;;25.17;15.20;;;;;;;8.90;53.92;100335.34;4404013;32;33407;-59
2022/03/16 02:38:16;;;;;;;27.30;14.73;;;;;;;9.85;51.18;100322.78;4404689;32;33914;-58
2022/03/16 02:40:43;;;;;;;25.02;13.82;;;;;;;10.28;50.02;100313.88;4403787;32;34742;-59
2022/03/16 02:43:11;;;;;;;29.17;14.68;;;;;;;9.86;51.88;100314.19;4404891;32;32546;-59
2022/03/16 02:45:38;;;;;;;27.33;14.95;;;;;;;10.02;51.54;100314.25;4391353;32;34341;-60
2022/03/16 02:48:06;;;;;;;27.83;13.98;;;;;;;10.06;52.46;100304.03;4404151;32;34634;-58
2022/03/16 02:50:34;;;;;;;25.73;14.82;;;;;;;9.63;51.94;100300.84;4403959;32;33918;-59
2022/03/16 02:53:01;;;;;;;27.00;15.25;;;;;;;8.79;56.84;100304.59;4403632;32;32301;-59
2022/03/16 02:55:46;;;;;;;21.55;14.55;;;;;;;8.52;57.84;100300.34;4403605;32;32997;-59
2022/03/16 02:58:15;;;;;;;26.80;15.27;;;;;;;8.53;57.48;100299.56;4402771;32;34685;-59
2022/03/16 03:00:43;;;;;;;27.37;15.35;;;;;;;8.46;59.17;100288.88;4390100;32;34115;-60
2022/03/16 03:03:12;;;;;;;27.20;15.32;;;;;;;8.38;59.02;100289.13;4390718;32;35469;-58
2022/03/16 03:05:39;;;;;;;28.70;15.38;;;;;;;8.33;59.45;100290.56;4403807;32;33434;-58
2022/03/16 03:08:07;;;;;;;29.12;16.67;;;;;;;8.07;61.17;100288.16;4403653;32;34036;-58
2022/03/16 03:10:34;;;;;;;31.17;16.08;;;;;;;7.92;62.31;100292.34;4390588;32;33929;-59
2022/03/16 03:13:02;;;;;;;25.48;15.57;;;;;;;8.13;61.71;100286.75;4403825;32;33999;-58
2022/03/16 03:15:30;;;;;;;31.23;17.02;;;;;;;8.02;61.29;100283.50;4403837;32;33460;-59
2022/03/16 03:17:57;;;;;;;30.15;16.23;;;;;;;7.85;63.02;100275.59;4402915;32;33646;-58
2022/03/16 03:20:25;;;;;;;30.60;17.08;;;;;;;8.15;62.02;100279.97;4404213;32;32800;-58
2022/03/16 03:22:52;;;;;;;30.88;18.00;;;;;;;7.78;64.61;100269.94;4405617;32;34660;-59
2022/03/16 03:25:20;;;;;;;30.62;18.05;;;;;;;7.34;67.20;100258.59;4405027;32;33760;-59
2022/03/16 03:27:47;;;;;;;35.40;19.87;;;;;;;7.08;68.91;100260.31;4405452;32;33936;-57
2022/03/16 03:30:15;;;;;;;35.88;19.67;;;;;;;6.96;70.11;100248.34;4405735;32;33944;-58
2022/03/16 03:32:42;;;;;;;30.15;17.77;;;;;;;7.63;68.76;100236.34;4391470;32;34784;-58
2022/03/16 03:35:10;;;;;;;29.20;17.08;;;;;;;7.64;69.43;100232.97;4405824;32;33720;-60
2022/03/16 03:37:38;;;;;;;32.55;16.98;;;;;;;8.30;67.13;100224.16;4390492;32;34608;-60
2022/03/16 03:40:06;;;;;;;25.27;16.50;;;;;;;9.08;63.41;100208.91;4403860;32;32568;-59
2022/03/16 03:42:33;;;;;;;27.60;16.58;;;;;;;9.60;61.53;100202.41;4402116;32;33493;-59
2022/03/16 03:45:01;;;;;;;27.02;14.48;;;;;;;9.79;60.74;100200.81;4403581;32;33129;-59
2022/03/16 03:47:29;;;;;;;24.98;14.48;;;;;;;9.51;61.49;100178.63;4403047;32;33669;-59
2022/03/16 03:49:56;;;;;;;25.40;14.68;;;;;;;9.54;60.80;100196.91;4402808;32;33611;-60
2022/03/16 03:52:24;;;;;;;26.42;15.88;;;;;;;9.42;60.51;100191.03;4403974;32;35327;-59
2022/03/16 03:54:51;;;;;;;32.10;15.90;;;;;;;9.87;59.46;100194.38;4405121;32;33125;-58
2022/03/16 03:57:19;;;;;;;30.58;15.98;;;;;;;9.35;61.01;100184.66;4405396;32;33768;-59
2022/03/16 03:59:46;;;;;;;26.40;16.23;;;;;;;9.36;61.00;100175.19;4405159;32;32323;-60
2022/03/16 04:02:14;;;;;;;27.30;16.02;;;;;;;9.62;60.67;100174.03;4407223;32;34380;-59
2022/03/16 04:04:42;;;;;;;27.20;16.35;;;;;;;9.53;61.82;100179.59;4408373;32;34315;-59
2022/03/16 04:07:09;;;;;;;28.17;16.30;;;;;;;9.42;62.69;100168.66;4407502;32;33949;-58
2022/03/16 04:09:36;;;;;;;27.90;15.82;;;;;;;9.24;63.55;100165.94;4408319;32;33890;-58
2022/03/16 04:12:05;;;;;;;26.73;16.40;;;;;;;9.61;61.82;100165.38;4408580;32;33641;-58
2022/03/16 04:14:32;;;;;;;26.85;16.55;;;;;;;9.92;59.94;100159.25;4407552;32;33411;-58
2022/03/16 04:17:01;;;;;;;29.95;16.83;;;;;;;10.01;58.87;100151.09;4388568;32;34874;-58
2022/03/16 04:19:29;;;;;;;27.05;15.90;;;;;;;10.11;57.81;100160.25;4407930;32;33917;-58
2022/03/16 04:21:56;;;;;;;30.50;16.05;;;;;;;9.99;57.64;100150.13;4408853;32;34579;-58
2022/03/16 04:24:23;;;;;;;28.87;16.23;;;;;;;9.67;59.04;100162.22;4408810;32;33766;-58
2022/03/16 04:26:52;;;;;;;27.58;16.67;;;;;;;9.77;58.40;100158.44;4408151;32;34470;-58
2022/03/16 04:29:19;;;;;;;29.85;16.50;;;;;;;9.94;58.16;100168.00;4408659;32;34009;-58
2022/03/16 04:31:47;;;;;;;27.40;16.48;;;;;;;9.89;57.65;100163.38;4407916;32;34039;-58
2022/03/16 04:34:14;;;;;;;30.27;16.02;;;;;;;10.11;55.89;100160.25;4409007;32;33702;-58
2022/03/16 04:36:43;;;;;;;28.83;16.15;;;;;;;10.44;54.59;100145.56;4409045;32;32878;-58
2022/03/16 04:39:10;;;;;;;28.30;16.85;;;;;;;10.09;55.79;100161.88;4408504;32;34581;-58
2022/03/16 04:41:38;;;;;;;26.55;15.60;;;;;;;9.99;56.68;100166.53;4409068;32;34599;-58
2022/03/16 04:44:05;;;;;;;34.50;16.65;;;;;;;9.05;57.98;100156.25;4408455;32;33633;-58
2022/03/16 04:46:33;;;;;;;25.42;15.95;;;;;;;7.84;61.74;100159.41;4407870;32;33776;-58
2022/03/16 04:49:00;;;;;;;26.95;16.05;;;;;;;7.65;63.13;100163.47;4408765;32;33991;-58
2022/03/16 04:51:28;;;;;;;29.23;16.20;;;;;;;8.90;59.22;100160.56;4408735;32;33899;-58
2022/03/16 04:53:55;;;;;;;31.30;16.60;;;;;;;9.47;57.84;100173.22;4408759;32;34185;-58
2022/03/16 04:56:23;;;;;;;24.25;15.85;;;;;;;9.78;57.00;100175.75;4408413;32;34009;-58
2022/03/16 04:58:50;;;;;;;29.55;16.98;;;;;;;10.17;55.79;100183.84;4408327;32;33866;-58
2022/03/16 05:01:18;;;;;;;27.42;15.90;;;;;;;10.38;54.96;100182.41;4408018;32;33779;-58
2022/03/16 05:03:45;;;;;;;29.52;15.75;;;;;;;10.64;54.37;100177.66;4408702;32;33351;-58
2022/03/16 05:06:13;;;;;;;27.55;16.12;;;;;;;10.14;55.47;100186.25;4408246;32;34557;-58
2022/03/16 05:08:40;;;;;;;29.63;16.60;;;;;;;9.99;56.44;100191.53;4407559;32;34729;-58
2022/03/16 05:11:08;;;;;;;28.58;16.30;;;;;;;10.39;54.38;100197.16;4407887;32;34298;-58
2022/03/16 05:13:35;;;;;;;30.33;16.50;;;;;;;9.74;57.93;100212.63;4408526;32;33658;-58
2022/03/16 05:16:03;;;;;;;27.73;16.50;;;;;;;9.88;57.33;100209.06;4407394;32;33877;-58
2022/03/16 05:18:31;;;;;;;26.45;16.27;;;;;;;8.59;61.32;100212.12;4407834;32;34864;-58
2022/03/16 05:20:58;;;;;;;31.30;17.23;;;;;;;8.63;61.99;100206.34;4408258;32;34305;-58
2022/03/16 05:23:26;;;;;;;26.27;17.25;;;;;;;9.98;57.67;100208.75;4408143;32;34180;-58
2022/03/16 05:25:54;;;;;;;29.75;16.23;;;;;;;10.11;57.03;100212.00;4408063;32;33712;-58
2022/03/16 05:28:21;;;;;;;28.98;17.10;;;;;;;10.25;56.63;100198.06;4408550;32;33945;-58
2022/03/16 05:30:49;;;;;;;27.83;15.25;;;;;;;9.65;59.51;100207.81;4407040;32;33917;-58
2022/03/16 05:33:16;;;;;;;32.67;17.08;;;;;;;8.40;63.93;100207.53;4407917;32;34241;-58
2022/03/16 05:35:44;;;;;;;25.33;15.82;;;;;;;8.07;65.84;100210.75;4408045;32;33767;-58
2022/03/16 05:38:14;;;;;;;23.85;14.27;;;;;;;8.83;63.44;100198.06;4404576;32;34469;-58
2022/03/16 05:40:43;;;;;;;22.33;14.57;;;;;;;9.03;62.16;100190.56;4407694;32;33777;-58
2022/03/16 05:43:11;;;;;;;22.27;14.40;;;;;;;9.10;62.55;100197.88;4408013;32;33250;-58
2022/03/16 05:45:39;;;;;;;23.10;13.62;;;;;;;8.62;64.70;100199.41;4407890;32;33903;-58
2022/03/16 05:48:07;;;;;;;22.87;14.18;;;;;;;9.82;60.07;100198.41;4407694;32;33958;-58
2022/03/16 05:50:34;;;;;;;24.48;14.23;;;;;;;10.19;58.88;100200.34;4407404;32;33683;-58
2022/03/16 05:53:02;;;;;;;22.08;13.65;;;;;;;10.39;58.18;100202.34;4393500;32;31698;-58
2022/03/16 05:55:30;;;;;;;22.37;13.88;;;;;;;10.29;58.45;100206.91;4408165;32;34080;-58
2022/03/16 05:57:57;;;;;;;24.15;14.20;;;;;;;10.77;57.11;100208.56;4408144;32;34747;-58
2022/03/16 06:00:25;;;;;;;29.08;14.18;;;;;;;8.70;63.45;100226.56;4406778;32;33797;-58
2022/03/16 06:02:52;;;;;;;26.55;14.20;;;;;;;8.02;66.79;100237.06;4407513;32;32545;-58
2022/03/16 06:05:24;;;;;;;23.35;13.70;;;;;;;8.22;65.97;100248.59;4406269;32;33738;-58
2022/03/16 06:07:53;;;;;;;21.40;13.90;;;;;;;8.79;63.61;100229.69;4407280;32;34729;-58
2022/03/16 06:10:20;;;;;;;27.80;14.55;;;;;;;9.97;59.38;100235.44;4408108;32;33678;-58
2022/03/16 06:12:51;;;;;;;21.98;13.77;;;;;;;9.42;60.59;100237.56;4394654;32;34109;-58
2022/03/16 06:15:18;;;;;;;23.17;13.65;;;;;;;9.90;59.97;100238.50;4407457;32;33952;-58
2022/03/16 06:17:46;;;;;;;20.58;12.80;;;;;;;10.14;59.62;100232.88;4407489;32;33774;-58
2022/03/16 06:20:14;;;;;;;22.45;13.88;;;;;;;9.38;62.55;100235.62;4407954;32;34217;-58
2022/03/16 06:22:41;;;;;;;21.40;14.70;;;;;;;8.89;64.00;100235.41;4408311;32;33411;-58
2022/03/16 06:25:09;;;;;;;20.95;13.57;;;;;;;8.39;66.56;100247.94;4402501;32;33996;-59
2022/03/16 06:27:36;;;;;;;25.30;14.73;;;;;;;8.70;65.76;100236.91;4406690;32;33821;-59
2022/03/16 06:30:05;;;;;;;23.90;14.87;;;;;;;8.19;69.22;100238.09;4404012;32;32763;-58
2022/03/16 06:32:32;;;;;;;22.52;13.57;;;;;;;8.30;68.11;100242.22;4403080;32;31738;-60
2022/03/16 06:35:00;;;;;;;25.73;14.07;;;;;;;8.67;67.46;100236.69;4404035;32;33461;-59
2022/03/16 06:37:28;;;;;;;22.45;13.90;;;;;;;8.47;68.08;100243.28;4405403;32;33953;-60
2022/03/16 06:39:55;;;;;;;24.33;14.50;;;;;;;9.03;66.31;100234.50;4405080;32;33936;-59
2022/03/16 06:42:22;;;;;;;21.12;14.20;;;;;;;8.65;67.94;100234.06;4404671;32;33245;-59
2022/03/16 06:44:50;;;;;;;21.58;13.90;;;;;;;9.13;67.04;100226.47;4391257;32;34405;-60
2022/03/16 06:47:18;;;;;;;23.62;14.38;;;;;;;9.96;64.00;100240.53;4400354;32;33984;-60
2022/03/16 06:49:45;;;;;;;20.88;12.80;;;;;;;9.60;65.66;100248.97;4409152;32;34007;-59
2022/03/16 06:52:13;;;;;;;26.45;12.93;;;;;;;8.76;69.22;100247.59;4406560;32;34180;-59
2022/03/16 06:54:40;;;;;;;23.15;13.75;;;;;;;9.39;67.93;100243.47;4404738;32;33882;-59
2022/03/16 06:57:08;;;;;;;21.05;12.98;;;;;;;9.08;69.56;100247.69;4397723;32;34793;-59
2022/03/16 06:59:55;;;;;;;23.98;14.43;;;;;;;8.68;71.44;100246.25;4407601;32;33953;-58
2022/03/16 07:02:23;;;;;;;21.23;14.02;;;;;;;9.10;70.33;100262.50;4407236;32;34343;-59
2022/03/16 07:04:50;;;;;;;23.60;12.75;;;;;;;9.23;69.81;100251.16;4407789;32;34682;-60
2022/03/16 07:07:18;;;;;;;23.75;13.77;;;;;;;10.21;66.24;100255.69;4406986;32;34854;-60
2022/03/16 07:09:45;;;;;;;20.17;12.40;;;;;;;9.74;68.49;100256.59;4407414;32;34594;-58
2022/03/16 07:12:13;;;;;;;22.75;13.60;;;;;;;10.09;66.61;100265.41;4407544;32;34134;-58
2022/03/16 07:14:40;;;;;;;22.23;12.00;;;;;;;10.34;65.31;100265.03;4407013;32;33553;-58
2022/03/16 07:17:08;;;;;;;24.40;12.02;;;;;;;9.83;66.95;100267.44;4405999;32;34081;-58
2022/03/16 07:19:35;;;;;;;21.40;12.32;;;;;;;9.87;67.29;100255.56;4407403;32;34311;-58
2022/03/16 07:22:04;;;;;;;21.48;12.45;;;;;;;9.01;70.61;100247.31;4406624;32;34002;-60
2022/03/16 07:24:31;;;;;;;20.50;12.57;;;;;;;9.33;70.36;100258.66;4407247;32;33895;-59
2022/03/16 07:27:03;;;;;;;28.05;13.70;;;;;;;9.16;70.57;100255.09;4405304;32;33614;-61
2022/03/16 07:29:31;;;;;;;25.00;13.88;;;;;;;9.08;71.14;100264.09;4407551;32;34067;-57
2022/03/16 07:31:58;;;;;;;21.80;12.25;;;;;;;9.34;70.76;100254.34;4405196;32;33042;-60
2022/03/16 07:34:26;;;;;;;22.35;12.80;;;;;;;9.47;70.17;100246.50;4390098;32;33903;-58
2022/03/16 07:36:54;;;;;;;23.02;12.98;;;;;;;8.93;72.57;100250.28;4404557;32;33932;-60
2022/03/16 07:39:21;;;;;;;25.90;14.13;;;;;;;9.29;71.37;100251.53;4406972;32;33974;-58
2022/03/16 07:41:49;;;;;;;20.50;11.80;;;;;;;9.96;69.43;100259.53;4404272;32;33921;-60
2022/03/16 07:44:17;;;;;;;22.17;11.50;;;;;;;9.97;69.49;100270.81;4406886;32;33970;-61
2022/03/16 07:46:44;;;;;;;21.73;12.95;;;;;;;9.75;70.94;100255.78;4407093;32;34153;-59
2022/03/16 07:49:12;;;;;;;22.25;11.90;;;;;;;9.77;70.65;100261.91;4404513;32;33929;-60
2022/03/16 07:51:39;;;;;;;22.40;11.85;;;;;;;9.90;70.70;100276.44;4406975;32;33519;-60
2022/03/16 07:54:07;;;;;;;20.90;11.88;;;;;;;9.78;71.18;100274.06;4407090;32;33994;-60
2022/03/16 07:56:34;;;;;;;21.85;11.68;;;;;;;9.50;72.26;100272.50;4394158;32;33951;-59
2022/03/16 07:59:02;;;;;;;22.37;12.75;;;;;;;9.06;75.38;100276.03;4402112;32;33887;-58
2022/03/16 08:01:30;;;;;;;21.10;12.07;;;;;;;10.04;71.47;100266.03;4406614;32;34143;-60
2022/03/16 08:03:58;;;;;;;19.10;11.52;;;;;;;9.80;72.16;100280.22;4406839;32;34094;-58
2022/03/16 08:06:26;;;;;;;18.08;11.12;;;;;;;9.83;72.28;100272.59;4406464;32;34829;-59
2022/03/16 08:08:53;;;;;;;23.52;12.45;;;;;;;10.16;70.65;100277.84;4404995;32;34568;-59
2022/03/16 08:11:21;;;;;;;21.50;12.98;;;;;;;9.68;72.43;100283.00;4400449;32;33702;-59
2022/03/16 08:13:48;;;;;;;17.10;10.73;;;;;;;9.94;72.22;100280.97;4408482;32;33755;-59
2022/03/16 08:16:16;;;;;;;20.85;12.25;;;;;;;9.86;72.84;100283.12;4394761;32;33803;-60
2022/03/16 08:18:44;;;;;;;18.77;12.30;;;;;;;10.01;72.07;100286.56;4396687;32;34329;-61
2022/03/16 08:21:11;;;;;;;19.45;11.93;;;;;;;10.27;71.10;100289.66;4408590;32;34173;-59
2022/03/16 08:23:39;;;;;;;20.92;12.32;;;;;;;9.72;72.42;100292.72;4409392;32;33912;-58
2022/03/16 08:26:10;;;;;;;17.90;10.63;;;;;;;10.02;70.53;100290.94;4406683;32;34489;-58
2022/03/16 08:28:37;;;;;;;23.77;11.65;;;;;;;10.19;69.46;100289.25;4406950;32;34679;-59
2022/03/16 08:31:05;;;;;;;19.83;11.82;;;;;;;9.86;69.80;100298.66;4408295;32;34513;-59
2022/03/16 08:33:33;;;;;;;21.33;12.50;;;;;;;9.77;69.59;100292.97;4406785;32;34636;-60
2022/03/16 08:36:01;;;;;;;19.10;11.00;;;;;;;9.55;70.56;100289.19;4407348;32;34112;-60
2022/03/16 08:38:30;;;;;;;20.75;12.77;;;;;;;9.40;71.50;100306.41;4404844;32;33901;-60
2022/03/16 08:40:57;;;;;;;22.52;13.65;;;;;;;9.45;71.69;100305.88;4404624;32;33616;-60
2022/03/16 08:43:25;;;;;;;25.73;13.00;;;;;;;9.37;72.48;100301.09;4408121;32;33943;-59
2022/03/16 08:45:53;;;;;;;21.42;13.55;;;;;;;9.42;72.69;100307.38;4398674;32;34015;-59
2022/03/16 08:48:21;;;;;;;24.60;14.32;;;;;;;9.60;72.14;100295.50;4408215;32;34154;-59
2022/03/16 08:50:48;;;;;;;26.27;15.10;;;;;;;9.29;73.70;100310.06;4406532;32;33702;-59
2022/03/16 08:53:16;;;;;;;24.65;14.55;;;;;;;9.08;75.14;100308.03;4407994;32;33795;-59
2022/03/16 08:55:43;;;;;;;24.23;15.70;;;;;;;9.12;74.87;100320.31;4405826;32;34683;-58
2022/03/16 08:58:14;;;;;;;23.87;14.98;;;;;;;8.90;75.83;100319.84;4404919;32;34071;-58
2022/03/16 09:00:42;;;;;;;24.55;14.52;;;;;;;9.02;75.24;100323.16;4404529;32;32713;-58
2022/03/16 09:03:10;;;;;;;21.50;13.65;;;;;;;9.50;73.64;100334.56;4393548;32;34741;-58
2022/03/16 09:05:37;;;;;;;25.75;15.48;;;;;;;9.60;73.28;100328.22;4407584;32;34518;-58
2022/03/16 09:08:05;;;;;;;26.40;14.20;;;;;;;9.52;72.70;100338.16;4406618;32;34682;-58
2022/03/16 09:10:34;;;;;;;24.25;13.55;;;;;;;9.31;74.30;100342.97;4406461;32;33546;-58
2022/03/16 09:13:02;;;;;;;21.48;12.70;;;;;;;9.55;72.56;100335.72;4398139;32;33668;-58
2022/03/16 09:15:30;;;;;;;21.27;12.55;;;;;;;9.17;73.29;100338.69;4404817;32;33927;-58
2022/03/16 09:17:58;;;;;;;24.48;13.20;;;;;;;9.33;72.79;100335.28;4407851;32;34004;-58
2022/03/16 09:20:26;;;;;;;20.20;11.63;;;;;;;9.08;73.67;100344.22;4407378;32;34262;-58
2022/03/16 09:22:53;;;;;;;26.80;15.02;;;;;;;9.27;72.49;100350.44;4397724;32;33575;-58
2022/03/16 09:25:24;;;;;;;24.60;13.88;;;;;;;9.30;72.87;100351.53;4407670;32;33941;-58
2022/03/16 09:27:51;;;;;;;22.50;11.90;;;;;;;9.34;71.89;100357.78;4407976;32;33663;-58
2022/03/16 09:30:19;;;;;;;19.02;11.73;;;;;;;9.11;72.03;100370.22;4408183;32;33656;-58
2022/03/16 09:32:47;;;;;;;19.80;11.20;;;;;;;9.11;72.19;100366.75;4406242;32;33858;-58
2022/03/16 09:35:14;;;;;;;16.10;9.00;;;;;;;8.97;72.51;100365.94;4407846;32;35312;-58
2022/03/16 09:37:42;;;;;;;23.92;11.90;;;;;;;8.70;73.61;100367.75;4407569;32;34540;-58
2022/03/16 09:40:10;;;;;;;20.52;11.27;;;;;;;8.42;75.22;100378.91;4408635;32;33207;-59
2022/03/16 09:42:37;;;;;;;22.85;11.55;;;;;;;8.24;76.80;100379.50;4407347;32;33911;-58
2022/03/16 09:45:07;;;;;;;24.02;13.07;;;;;;;8.45;76.44;100376.53;4406628;32;33918;-59
2022/03/16 09:47:35;;;;;;;22.83;13.07;;;;;;;8.86;75.05;100398.84;4406807;32;34560;-59
2022/03/16 09:50:03;;;;;;;21.17;13.75;;;;;;;8.73;75.01;100402.41;4392742;32;33170;-59
2022/03/16 09:52:31;;;;;;;21.00;12.65;;;;;;;8.76;75.66;100392.22;4408357;32;35501;-59
2022/03/16 09:54:59;;;;;;;25.37;14.57;;;;;;;8.59;75.97;100409.25;4388496;32;33879;-59
2022/03/16 09:57:27;;;;;;;25.30;14.20;;;;;;;8.22;77.69;100400.88;4407852;32;33953;-59
2022/03/16 09:59:55;;;;;;;25.55;14.75;;;;;;;8.75;76.24;100405.97;4391865;32;33364;-59
2022/03/16 10:02:26;;;;;;;21.10;13.52;;;;;;;8.48;77.41;100404.22;4402189;32;33402;-59
2022/03/16 10:04:54;;;;;;;28.52;14.40;;;;;;;8.19;78.32;100400.66;4397830;32;34748;-59
2022/03/16 10:07:30;;;;;;;27.50;13.90;;;;;;;8.59;77.27;100404.09;4403213;32;34884;-59
2022/03/16 10:15:30;;;;;;;21.02;13.50;;;;;;;8.18;78.09;100410.09;4388445;32;33019;-59
2022/03/16 10:17:59;;;;;;;24.37;13.88;;;;;;;8.30;77.74;100428.06;4405080;32;34698;-59
2022/03/16 10:20:38;;;;;;;23.62;14.73;;;;;;;8.23;78.38;100419.03;4404646;32;31873;-59
2022/03/16 10:23:10;;;;;;;20.92;12.95;;;;;;;8.21;77.72;100414.59;4407745;32;34348;-59
2022/03/16 10:25:45;;;;;;;21.08;11.85;;;;;;;8.45;76.99;100426.47;4406389;32;33675;-59
2022/03/16 10:28:16;;;;;;;20.23;11.20;;;;;;;8.33;76.99;100425.69;4408004;32;34575;-59
2022/03/16 10:31:02;;;;;;;20.27;11.65;;;;;;;8.31;76.76;100422.09;4403083;32;33696;-59
2022/03/16 10:33:32;;;;;;;24.23;12.75;;;;;;;8.03;77.64;100425.47;4399577;32;32295;-59
2022/03/16 10:36:03;;;;;;;20.08;12.13;;;;;;;7.91;78.26;100431.53;4406979;32;33743;-59
2022/03/16 10:38:53;;;;;;;19.80;12.50;;;;;;;8.25;77.01;100429.47;4405601;32;34497;-59
2022/03/16 10:47:10;;;;;;;21.00;11.93;;;;;;;7.75;77.89;100432.22;4397635;32;34660;-58
2022/03/16 10:49:38;;;;;;;19.65;10.88;;;;;;;8.35;76.48;100426.66;4408075;32;34565;-58
2022/03/16 10:52:17;;;;;;;18.30;10.75;;;;;;;8.17;77.33;100431.56;4396802;32;33644;-58
2022/03/16 10:54:50;;;;;;;15.35;9.60;;;;;;;8.41;75.67;100424.50;4396564;32;33624;-58
2022/03/16 10:57:18;;;;;;;17.12;10.65;;;;;;;8.42;75.58;100430.53;4408921;32;33092;-59
2022/03/16 10:59:49;;;;;;;19.85;11.95;;;;;;;8.60;74.82;100425.69;4391698;32;33946;-58
2022/03/16 11:02:19;;;;;;;15.75;10.13;;;;;;;8.85;74.17;100439.31;4405514;32;33554;-59
2022/03/16 11:04:50;;;;;;;17.00;10.57;;;;;;;8.41;75.00;100429.66;4396005;32;33264;-59
2022/03/16 11:07:18;;;;;;;16.95;9.90;;;;;;;7.95;76.49;100431.84;4401632;32;34838;-58
2022/03/16 11:09:48;;;;;;;16.80;9.82;;;;;;;8.31;76.31;100447.91;4404343;32;33744;-58
2022/03/16 11:15:04;;;;;;;14.85;9.20;;;;;;;8.39;74.69;100444.13;4397551;32;33697;-59
2022/03/16 11:17:35;;;;;;;14.25;9.88;;;;;;;8.62;73.71;100445.62;4393876;32;34550;-59
2022/03/16 11:20:08;;;;;;;17.45;9.95;;;;;;;8.64;73.49;100453.47;4406367;32;34541;-58
2022/03/16 11:24:15;;;;;;;15.75;9.70;;;;;;;8.74;73.07;100458.41;4407876;32;34149;-59
2022/03/16 11:25:47;;;;;;;16.52;9.50;;;;;;;8.51;72.99;100438.88;4395727;32;33966;-59
2022/03/16 11:28:16;;;;;;;15.77;9.48;;;;;;;8.03;75.22;100461.59;4407477;32;33895;-59
2022/03/16 11:30:44;;;;;;;16.45;10.02;;;;;;;7.81;75.98;100468.75;4405408;32;34698;-59
2022/03/16 11:33:15;;;;;;;12.90;8.48;;;;;;;8.24;74.87;100471.53;4393712;32;33248;-59